createdAt,value
2022-11-13T00:02:30.429Z,25.63
2022-11-13T00:05:18.415Z,24.27
2022-11-13T00:08:04.838Z,22.85
2022-11-13T00:10:51.613Z,26.80
2022-11-13T00:13:38.114Z,29.00
2022-11-13T00:16:24.798Z,28.80
2022-11-13T00:19:11.464Z,22.27
2022-11-13T00:22:00.229Z,26.25
2022-11-13T00:24:46.787Z,28.48
2022-11-13T00:27:33.570Z,21.45
2022-11-13T00:30:20.256Z,23.75
2022-11-13T00:33:06.891Z,32.92
2022-11-13T00:35:53.686Z,24.35
2022-11-13T00:38:41.446Z,29.15
2022-11-13T00:41:27.984Z,26.08
2022-11-13T00:44:14.876Z,25.13
2022-11-13T00:47:01.286Z,22.92
2022-11-13T00:49:47.741Z,26.95
2022-11-13T00:52:34.248Z,30.88
2022-11-13T00:55:22.059Z,25.13
2022-11-13T00:58:08.493Z,24.20
2022-11-13T01:00:55.272Z,23.80
2022-11-13T01:03:42.310Z,21.67
2022-11-13T01:06:29.680Z,26.00
2022-11-13T01:09:16.250Z,19.50
2022-11-13T01:12:04.158Z,24.25
2022-11-13T01:14:51.298Z,25.17
2022-11-13T01:17:38.443Z,27.85
2022-11-13T01:20:26.168Z,23.80
2022-11-13T01:23:12.739Z,24.63
2022-11-13T01:26:07.044Z,26.02
2022-11-13T01:28:57.061Z,20.60
2022-11-13T01:31:43.971Z,19.65
2022-11-13T01:34:30.768Z,25.25
2022-11-13T01:37:17.370Z,24.27
2022-11-13T01:40:04.354Z,25.33
2022-11-13T01:42:51.095Z,23.02
2022-11-13T01:46:07.378Z,29.00
2022-11-13T01:48:59.528Z,21.83
2022-11-13T01:51:50.825Z,23.77
2022-11-13T01:54:42.676Z,21.83
2022-11-13T01:57:29.865Z,20.85
2022-11-13T02:00:17.420Z,26.98
2022-11-13T02:03:05.668Z,21.80
2022-11-13T02:05:52.404Z,22.20
2022-11-13T02:08:39.707Z,20.33
2022-11-13T02:11:27.013Z,24.52
2022-11-13T02:14:15.321Z,29.33
2022-11-13T02:17:05.592Z,19.45
2022-11-13T02:20:02.746Z,23.15
2022-11-13T02:22:55.435Z,18.65
2022-11-13T02:25:44.432Z,20.05
2022-11-13T02:28:31.138Z,22.63
2022-11-13T02:31:17.895Z,21.05
2022-11-13T02:34:04.859Z,23.52
2022-11-13T02:36:51.747Z,21.23
2022-11-13T02:39:38.788Z,20.70
2022-11-13T02:42:27.118Z,21.15
2022-11-13T02:45:13.480Z,19.77
2022-11-13T02:48:00.894Z,22.55
2022-11-13T02:50:48.140Z,22.35
2022-11-13T02:53:34.753Z,18.48
2022-11-13T02:56:21.497Z,24.95
2022-11-13T02:59:09.545Z,23.90
2022-11-13T03:01:56.128Z,20.63
2022-11-13T03:05:10.896Z,26.60
2022-11-13T03:07:50.041Z,24.42
2022-11-13T03:10:37.506Z,22.88
2022-11-13T03:13:24.265Z,23.23
2022-11-13T03:16:14.028Z,22.30
2022-11-13T03:19:00.494Z,19.60
2022-11-13T03:21:47.244Z,22.65
2022-11-13T03:24:33.781Z,19.58
2022-11-13T03:27:20.859Z,24.42
2022-11-13T03:30:09.435Z,20.25
2022-11-13T03:32:58.228Z,18.58
2022-11-13T03:35:47.143Z,19.25
2022-11-13T03:38:33.562Z,19.20
2022-11-13T03:41:20.153Z,22.77
2022-11-13T03:44:07.135Z,19.98
2022-11-13T03:46:53.752Z,23.60
2022-11-13T03:49:41.400Z,22.48
2022-11-13T03:52:28.394Z,20.58
2022-11-13T03:55:15.152Z,22.13
2022-11-13T03:58:01.676Z,21.42
2022-11-13T04:00:48.818Z,20.95
2022-11-13T04:03:35.144Z,20.50
2022-11-13T04:06:23.161Z,21.63
2022-11-13T04:09:09.816Z,24.75
2022-11-13T04:11:56.093Z,20.08
2022-11-13T04:14:43.033Z,23.45
2022-11-13T04:17:29.617Z,20.67
2022-11-13T04:20:16.995Z,18.50
2022-11-13T04:23:07.850Z,21.52
2022-11-13T04:25:55.052Z,20.40
2022-11-13T04:28:41.776Z,22.63
2022-11-13T04:31:28.468Z,19.15
2022-11-13T04:34:15.386Z,17.92
2022-11-13T04:37:01.982Z,20.77
2022-11-13T04:39:49.807Z,21.58
2022-11-13T04:42:54.883Z,20.80
2022-11-13T04:45:48.702Z,19.38
2022-11-13T04:48:42.377Z,19.80
2022-11-13T04:51:29.867Z,18.67
2022-11-13T04:54:16.884Z,19.55
2022-11-13T04:57:05.333Z,17.35
2022-11-13T04:59:51.977Z,18.17
2022-11-13T05:02:38.675Z,17.73
2022-11-13T05:05:25.496Z,22.10
2022-11-13T05:08:12.826Z,25.75
2022-11-13T05:10:59.285Z,22.80
2022-11-13T05:13:47.168Z,17.27
2022-11-13T05:16:36.240Z,20.60
2022-11-13T05:19:23.136Z,17.27
2022-11-13T05:22:10.810Z,19.52
2022-11-13T05:24:57.387Z,20.15
2022-11-13T05:27:43.925Z,21.05
2022-11-13T05:30:31.730Z,18.67
2022-11-13T05:33:19.723Z,20.92
2022-11-13T05:36:10.017Z,16.95
2022-11-13T05:38:56.857Z,17.83
2022-11-13T05:41:43.049Z,18.50
2022-11-13T05:44:29.939Z,15.48
2022-11-13T05:47:17.857Z,20.05
2022-11-13T05:50:05.394Z,15.82
2022-11-13T05:52:52.048Z,19.13
2022-11-13T05:55:38.710Z,19.30
2022-11-13T05:58:25.666Z,18.00
2022-11-13T06:01:15.060Z,20.58
2022-11-13T06:04:03.760Z,19.83
2022-11-13T06:06:50.692Z,18.90
2022-11-13T06:09:36.989Z,18.33
2022-11-13T06:12:23.920Z,19.85
2022-11-13T06:15:11.446Z,22.20
2022-11-13T06:17:57.888Z,23.92
2022-11-13T06:20:45.914Z,16.92
2022-11-13T06:23:34.414Z,18.23
2022-11-13T06:26:23.465Z,19.85
2022-11-13T06:29:13.477Z,20.05
2022-11-13T06:32:00.090Z,20.05
2022-11-13T06:34:46.539Z,19.88
2022-11-13T06:37:34.897Z,18.27
2022-11-13T06:40:21.201Z,16.63
2022-11-13T06:43:07.703Z,17.10
2022-11-13T06:45:54.783Z,18.88
2022-11-13T06:48:41.464Z,17.70
2022-11-13T06:51:30.531Z,17.70
2022-11-13T06:54:18.855Z,15.07
2022-11-13T06:57:05.076Z,19.40
2022-11-13T06:59:51.560Z,16.55
2022-11-13T07:02:38.082Z,17.05
2022-11-13T07:05:24.864Z,23.20
2022-11-13T07:08:11.649Z,16.08
2022-11-13T07:11:00.771Z,19.05
2022-11-13T07:13:47.737Z,17.42
2022-11-13T07:16:56.250Z,18.83
2022-11-13T07:19:42.678Z,16.95
2022-11-13T07:22:30.428Z,25.05
2022-11-13T07:25:17.582Z,17.60
2022-11-13T07:28:07.560Z,17.40
2022-11-13T07:30:54.463Z,13.23
2022-11-13T07:33:41.195Z,17.65
2022-11-13T07:36:28.062Z,18.48
2022-11-13T07:39:14.959Z,16.42
2022-11-13T07:42:01.512Z,15.88
2022-11-13T07:44:54.452Z,16.85
2022-11-13T07:47:42.205Z,15.68
2022-11-13T07:50:29.900Z,14.30
2022-11-13T07:53:17.372Z,18.52
2022-11-13T07:56:04.585Z,14.02
2022-11-13T07:58:51.158Z,16.30
2022-11-13T08:01:39.160Z,17.63
2022-11-13T08:04:26.049Z,16.42
2022-11-13T08:07:13.608Z,16.70
2022-11-13T08:10:00.743Z,16.02
2022-11-13T08:12:48.319Z,16.15
2022-11-13T08:15:35.299Z,14.90
2022-11-13T08:18:23.227Z,19.15
2022-11-13T08:21:14.655Z,23.58
2022-11-13T08:24:01.892Z,16.52
2022-11-13T08:26:48.248Z,15.20
2022-11-13T08:29:37.424Z,14.07
2022-11-13T08:32:24.592Z,19.65
2022-11-13T08:35:16.043Z,14.40
2022-11-13T08:38:07.656Z,14.10
2022-11-13T08:40:58.203Z,17.33
2022-11-13T08:43:44.641Z,15.38
2022-11-13T08:46:31.647Z,17.92
2022-11-13T08:49:18.325Z,19.65
2022-11-13T08:52:06.910Z,17.13
2022-11-13T08:54:54.695Z,17.10
2022-11-13T08:57:41.718Z,15.63
2022-11-13T09:00:34.822Z,15.88
2022-11-13T09:03:21.348Z,16.00
2022-11-13T09:06:09.009Z,15.75
2022-11-13T09:08:56.947Z,14.73
2022-11-13T09:11:43.571Z,19.40
2022-11-13T09:14:30.736Z,15.40
2022-11-13T09:17:17.497Z,17.40
2022-11-13T09:20:08.796Z,14.32
2022-11-13T09:23:00.050Z,12.60
2022-11-13T09:25:48.990Z,13.75
2022-11-13T09:28:36.067Z,15.63
2022-11-13T09:31:22.931Z,14.82
2022-11-13T09:34:10.115Z,15.88
2022-11-13T09:36:56.716Z,15.93
2022-11-13T09:39:43.276Z,15.27
2022-11-13T09:42:33.426Z,14.25
2022-11-13T09:45:20.394Z,14.23
2022-11-13T09:48:18.519Z,17.80
2022-11-13T09:51:11.867Z,13.52
2022-11-13T09:53:59.542Z,16.92
2022-11-13T09:56:51.917Z,15.00
2022-11-13T09:59:47.571Z,20.30
2022-11-13T10:02:46.582Z,19.83
2022-11-13T10:05:40.660Z,16.48
2022-11-13T10:08:31.175Z,16.90
2022-11-13T10:11:25.882Z,17.98
2022-11-13T10:14:18.691Z,15.00
2022-11-13T10:17:14.683Z,14.15
2022-11-13T10:20:03.617Z,14.98
2022-11-13T10:22:52.426Z,15.27
2022-11-13T10:25:41.386Z,15.98
2022-11-13T10:28:49.299Z,16.15
2022-11-13T10:31:44.171Z,13.75
2022-11-13T10:34:33.687Z,17.13
2022-11-13T10:37:32.193Z,13.55
2022-11-13T10:40:29.470Z,15.65
2022-11-13T10:43:17.809Z,17.30
2022-11-13T10:46:06.704Z,13.77
2022-11-13T10:48:53.959Z,14.00
2022-11-13T10:51:42.280Z,12.73
2022-11-13T10:54:30.729Z,15.77
2022-11-13T10:57:33.226Z,15.43
2022-11-13T11:00:23.099Z,16.05
2022-11-13T11:03:14.710Z,15.70
2022-11-13T11:06:03.445Z,14.85
2022-11-13T11:08:51.336Z,15.05
2022-11-13T11:11:55.472Z,13.80
2022-11-13T11:14:46.191Z,13.82
2022-11-13T11:17:38.494Z,14.63
2022-11-13T11:20:36.614Z,16.70
2022-11-13T11:23:29.514Z,19.25
2022-11-13T11:26:22.655Z,16.70
2022-11-13T11:29:20.603Z,14.68
2022-11-13T11:32:15.920Z,16.35
2022-11-13T11:35:09.345Z,15.10
2022-11-13T11:38:04.170Z,18.77
2022-11-13T11:40:54.828Z,41.30
2022-11-13T11:43:44.506Z,25.17
2022-11-13T11:46:31.476Z,41.35
2022-11-13T11:49:19.156Z,22.10
2022-11-13T11:52:20.772Z,15.95
2022-11-13T11:55:32.520Z,12.35
2022-11-13T11:58:31.416Z,14.98
2022-11-13T12:01:33.760Z,12.68
2022-11-13T12:04:36.043Z,17.45
2022-11-13T12:07:33.912Z,15.55
2022-11-13T12:10:28.290Z,16.85
2022-11-13T12:13:27.130Z,13.88
2022-11-13T12:16:24.848Z,13.35
2022-11-13T12:19:25.065Z,12.93
2022-11-13T12:22:21.470Z,11.10
2022-11-13T12:25:19.038Z,13.15
2022-11-13T12:28:16.486Z,13.27
2022-11-13T12:31:12.629Z,12.18
2022-11-13T12:34:08.573Z,12.50
2022-11-13T12:36:57.061Z,12.05
2022-11-13T12:39:52.998Z,14.15
2022-11-13T12:42:45.450Z,11.07
2022-11-13T12:45:47.312Z,17.42
2022-11-13T12:48:36.627Z,15.65
2022-11-13T12:51:22.855Z,14.05
2022-11-13T12:54:13.365Z,12.98
2022-11-13T12:57:09.104Z,11.80
2022-11-13T12:59:57.606Z,10.57
2022-11-13T13:02:57.062Z,13.75
2022-11-13T13:06:19.741Z,12.95
2022-11-13T13:09:29.380Z,11.32
2022-11-13T13:12:35.913Z,12.82
2022-11-13T13:15:31.679Z,12.55
2022-11-13T13:18:28.262Z,13.77
2022-11-13T13:21:17.640Z,12.93
2022-11-13T13:24:09.906Z,12.85
2022-11-13T13:26:58.498Z,13.63
2022-11-13T13:29:45.084Z,13.15
2022-11-13T13:32:38.428Z,13.25
2022-11-13T13:35:30.942Z,13.23
2022-11-13T13:38:23.265Z,13.02
2022-11-13T13:41:19.927Z,17.00
2022-11-13T13:44:36.202Z,12.88
2022-11-13T13:47:27.401Z,18.85
2022-11-13T13:50:17.099Z,15.52
2022-11-13T13:53:04.221Z,14.57
2022-11-13T13:55:54.003Z,16.30
2022-11-13T13:58:41.943Z,14.50
2022-11-13T14:01:31.961Z,22.48
2022-11-13T14:04:20.758Z,13.98
2022-11-13T14:07:20.751Z,18.27
2022-11-13T14:10:17.448Z,14.30
2022-11-13T14:13:05.382Z,16.02
2022-11-13T14:16:02.005Z,13.88
2022-11-13T14:18:49.727Z,13.05
2022-11-13T14:21:37.687Z,13.30
2022-11-13T14:24:30.284Z,13.27
2022-11-13T14:27:19.912Z,17.92
2022-11-13T14:30:21.202Z,33.25
2022-11-13T14:33:10.768Z,16.75
2022-11-13T14:36:00.327Z,15.15
2022-11-13T14:38:52.110Z,18.55
2022-11-13T14:41:43.024Z,14.75
2022-11-13T14:44:32.600Z,21.23
2022-11-13T14:47:55.353Z,23.77
2022-11-13T14:50:52.457Z,21.98
2022-11-13T14:53:43.450Z,17.48
2022-11-13T14:56:35.852Z,24.75
2022-11-13T14:59:27.398Z,16.33
2022-11-13T15:02:14.840Z,17.95
2022-11-13T15:05:01.196Z,14.13
2022-11-13T15:07:48.052Z,15.88
2022-11-13T15:10:38.165Z,18.30
2022-11-13T15:13:25.078Z,18.58
2022-11-13T15:16:16.886Z,18.30
2022-11-13T15:19:07.221Z,17.98
2022-11-13T15:25:00.715Z,20.05
2022-11-13T15:27:48.845Z,15.45
2022-11-13T15:30:35.246Z,19.33
2022-11-13T15:33:22.158Z,21.45
2022-11-13T15:36:12.201Z,21.38
2022-11-13T15:39:02.349Z,20.38
2022-11-13T15:41:53.383Z,19.33
2022-11-13T15:44:41.843Z,18.60
2022-11-13T15:47:31.587Z,24.58
2022-11-13T15:50:18.330Z,22.33
2022-11-13T15:53:05.763Z,19.70
2022-11-13T15:55:52.680Z,26.35
2022-11-13T15:58:39.321Z,19.50
2022-11-13T16:01:27.577Z,19.55
2022-11-13T16:04:16.199Z,19.08
2022-11-13T16:07:02.968Z,17.42
2022-11-13T16:09:49.158Z,18.88
2022-11-13T16:12:35.924Z,20.80
2022-11-13T16:15:22.979Z,18.48
2022-11-13T16:18:21.186Z,22.73
2022-11-13T16:21:11.576Z,18.77
2022-11-13T16:23:58.768Z,19.20
2022-11-13T16:26:49.669Z,17.00
2022-11-13T16:29:36.629Z,23.80
2022-11-13T16:32:24.399Z,21.88
2022-11-13T16:35:17.483Z,18.63
2022-11-13T16:38:05.366Z,21.15
2022-11-13T16:40:52.242Z,18.88
2022-11-13T16:43:39.878Z,20.60
2022-11-13T16:46:29.906Z,16.63
2022-11-13T16:49:19.375Z,19.08
2022-11-13T16:52:08.025Z,19.40
2022-11-13T16:54:54.706Z,24.23
2022-11-13T16:57:41.550Z,16.25
2022-11-13T17:00:28.873Z,18.60
2022-11-13T17:03:15.362Z,19.80
2022-11-13T17:06:01.872Z,18.38
2022-11-13T17:08:51.962Z,17.70
2022-11-13T17:11:38.770Z,22.77
2022-11-13T17:14:25.049Z,19.30
2022-11-13T17:17:14.443Z,18.60
2022-11-13T17:20:00.881Z,20.67
2022-11-13T17:22:49.185Z,17.75
2022-11-13T17:25:37.253Z,16.45
2022-11-13T17:28:24.039Z,16.95
2022-11-13T17:31:12.984Z,15.55
2022-11-13T17:33:59.830Z,16.52
2022-11-13T17:36:46.399Z,19.33
2022-11-13T17:39:33.253Z,15.82
2022-11-13T17:42:21.352Z,18.42
2022-11-13T17:45:09.328Z,20.67
2022-11-13T17:47:56.210Z,16.27
2022-11-13T17:50:43.237Z,16.55
2022-11-13T17:53:30.706Z,18.90
2022-11-13T17:56:20.062Z,15.07
2022-11-13T17:59:20.864Z,18.95
2022-11-13T18:02:07.497Z,17.33
2022-11-13T18:04:56.318Z,17.67
2022-11-13T18:07:42.787Z,17.58
2022-11-13T18:10:29.271Z,16.40
2022-11-13T18:13:17.276Z,17.52
2022-11-13T18:16:10.003Z,14.13
2022-11-13T18:18:58.417Z,16.20
2022-11-13T18:21:45.282Z,17.05
2022-11-13T18:24:31.897Z,17.52
2022-11-13T18:27:18.632Z,15.98
2022-11-13T18:30:07.109Z,19.85
2022-11-13T18:32:55.112Z,16.00
2022-11-13T18:35:42.158Z,16.27
2022-11-13T18:38:29.471Z,19.98
2022-11-13T18:41:18.074Z,17.40
2022-11-13T18:44:05.410Z,18.27
2022-11-13T18:46:51.749Z,19.75
2022-11-13T18:49:39.937Z,18.23
2022-11-13T18:52:26.686Z,21.08
2022-11-13T18:55:14.004Z,20.60
2022-11-13T18:58:00.496Z,18.80
2022-11-13T19:00:47.192Z,19.42
2022-11-13T19:03:34.675Z,22.10
2022-11-13T19:06:24.968Z,26.00
2022-11-13T19:09:13.646Z,25.17
2022-11-13T19:12:00.645Z,23.92
2022-11-13T19:14:50.314Z,19.55
2022-11-13T19:17:41.401Z,18.48
2022-11-13T19:20:28.002Z,22.60
2022-11-13T19:23:17.007Z,21.98
2022-11-13T19:26:04.692Z,18.77
2022-11-13T19:28:52.855Z,19.67
2022-11-13T19:31:39.575Z,21.83
2022-11-13T19:34:26.058Z,23.10
2022-11-13T19:37:19.135Z,25.67
2022-11-13T19:40:08.549Z,24.35
2022-11-13T19:42:55.909Z,21.50
2022-11-13T19:45:43.012Z,29.23
2022-11-13T19:48:29.943Z,20.88
2022-11-13T19:51:18.566Z,24.63
2022-11-13T19:54:05.287Z,20.13
2022-11-13T19:56:53.700Z,23.35
2022-11-13T19:59:40.899Z,24.52
2022-11-13T20:02:27.346Z,22.98
2022-11-13T20:05:14.270Z,22.85
2022-11-13T20:08:01.271Z,25.65
2022-11-13T20:10:48.387Z,24.30
2022-11-13T20:13:38.941Z,23.45
2022-11-13T20:16:26.139Z,22.83
2022-11-13T20:19:12.561Z,23.95
2022-11-13T20:21:59.867Z,23.35
2022-11-13T20:24:49.023Z,23.55
2022-11-13T20:27:37.414Z,27.38
2022-11-13T20:30:25.882Z,24.60
2022-11-13T20:33:12.562Z,29.90
2022-11-13T20:35:59.492Z,27.95
2022-11-13T20:38:55.616Z,27.42
2022-11-13T20:41:42.670Z,27.83
2022-11-13T20:44:29.541Z,24.73
2022-11-13T20:47:17.684Z,26.80
2022-11-13T20:50:04.064Z,26.85
2022-11-13T20:52:50.749Z,25.92
2022-11-13T20:55:37.491Z,26.30
2022-11-13T20:58:24.102Z,26.67
2022-11-13T21:01:13.230Z,24.20
2022-11-13T21:04:01.281Z,28.45
2022-11-13T21:06:48.081Z,29.63
2022-11-13T21:09:34.699Z,29.02
2022-11-13T21:12:21.543Z,30.58
2022-11-13T21:15:09.224Z,28.67
2022-11-13T21:17:59.460Z,30.05
2022-11-13T21:20:48.053Z,33.63
2022-11-13T21:23:34.791Z,31.05
2022-11-13T21:26:21.407Z,29.33
2022-11-13T21:29:08.303Z,35.38
2022-11-13T21:31:54.912Z,34.08
2022-11-13T21:34:41.310Z,36.20
2022-11-13T21:37:29.326Z,36.95
2022-11-13T21:40:16.155Z,31.55
2022-11-13T21:43:03.097Z,38.08
2022-11-13T21:45:49.702Z,36.72
2022-11-13T21:48:36.297Z,37.58
2022-11-13T21:51:23.263Z,35.88
2022-11-13T21:54:11.545Z,42.80
2022-11-13T21:56:57.836Z,37.10
2022-11-13T21:59:44.387Z,42.45
2022-11-13T22:02:31.120Z,41.42
2022-11-13T22:05:17.538Z,40.50
2022-11-13T22:08:04.068Z,43.08
2022-11-13T22:10:52.061Z,44.83
2022-11-13T22:13:38.867Z,43.28
2022-11-13T22:16:26.868Z,43.78
2022-11-13T22:19:15.832Z,47.55
2022-11-13T22:22:02.619Z,44.15
2022-11-13T22:24:48.916Z,47.22
2022-11-13T22:27:36.776Z,50.30
2022-11-13T22:30:23.236Z,52.05
2022-11-13T22:33:09.550Z,48.63
2022-11-13T22:36:01.812Z,59.28
2022-11-13T22:38:48.668Z,57.60
2022-11-13T22:41:36.847Z,57.45
2022-11-13T22:44:35.070Z,51.97
2022-11-13T22:47:35.684Z,53.47
2022-11-13T22:50:25.056Z,57.45
2022-11-13T22:53:14.581Z,53.22
2022-11-13T22:56:02.658Z,62.33
2022-11-13T22:58:49.653Z,56.53
2022-11-13T23:01:39.230Z,63.28
2022-11-13T23:04:25.849Z,55.55
2022-11-13T23:07:12.623Z,61.47
2022-11-13T23:09:59.600Z,59.90
2022-11-13T23:12:45.896Z,52.60
2022-11-13T23:15:32.264Z,58.17
2022-11-13T23:18:20.470Z,57.70
2022-11-13T23:21:08.056Z,59.72
2022-11-13T23:23:55.424Z,57.17
2022-11-13T23:26:42.023Z,52.40
2022-11-13T23:29:28.562Z,54.35
2022-11-13T23:32:15.126Z,58.90
2022-11-13T23:35:03.270Z,51.47
2022-11-13T23:37:49.763Z,57.25
2022-11-13T23:40:36.391Z,44.22
2022-11-13T23:43:23.578Z,46.72
2022-11-13T23:46:13.292Z,50.10
2022-11-13T23:49:00.091Z,41.50
2022-11-13T23:51:47.984Z,46.20
2022-11-13T23:54:34.588Z,45.67
2022-11-13T23:57:21.354Z,37.95
